sensor_id;sensor_type;location;lat;lon;timestamp;P1;durP1;ratioP1;P2;durP2;ratioP2
24739;SDS011;45234;48.148;17.128;2023-02-15T00:01:49;24.25;;;13.80;;
24739;SDS011;45234;48.148;17.128;2023-02-15T00:04:20;21.38;;;13.00;;
24739;SDS011;45234;48.148;17.128;2023-02-15T00:06:48;20.25;;;13.25;;
24739;SDS011;45234;48.148;17.128;2023-02-15T00:09:17;21.42;;;13.82;;
24739;SDS011;45234;48.148;17.128;2023-02-15T00:11:44;25.50;;;14.32;;
24739;SDS011;45234;48.148;17.128;2023-02-15T00:16:45;25.10;;;13.98;;
24739;SDS011;45234;48.148;17.128;2023-02-15T00:19:14;21.63;;;13.43;;
24739;SDS011;45234;48.148;17.128;2023-02-15T00:21:43;20.48;;;13.30;;
24739;SDS011;45234;48.148;17.128;2023-02-15T00:24:10;24.38;;;13.05;;
24739;SDS011;45234;48.148;17.128;2023-02-15T00:26:39;19.77;;;11.80;;
24739;SDS011;45234;48.148;17.128;2023-02-15T00:29:07;26.58;;;13.65;;
24739;SDS011;45234;48.148;17.128;2023-02-15T00:31:36;21.42;;;11.63;;
24739;SDS011;45234;48.148;17.128;2023-02-15T00:34:07;21.10;;;12.18;;
24739;SDS011;45234;48.148;17.128;2023-02-15T00:36:36;18.73;;;11.52;;
24739;SDS011;45234;48.148;17.128;2023-02-15T00:39:03;23.67;;;12.68;;
24739;SDS011;45234;48.148;17.128;2023-02-15T00:41:31;22.27;;;12.20;;
24739;SDS011;45234;48.148;17.128;2023-02-15T00:43:59;24.13;;;12.20;;
24739;SDS011;45234;48.148;17.128;2023-02-15T00:46:27;20.63;;;12.55;;
24739;SDS011;45234;48.148;17.128;2023-02-15T00:48:55;22.50;;;12.40;;
24739;SDS011;45234;48.148;17.128;2023-02-15T00:51:22;20.63;;;12.80;;
24739;SDS011;45234;48.148;17.128;2023-02-15T00:53:50;20.15;;;12.27;;
24739;SDS011;45234;48.148;17.128;2023-02-15T00:56:17;24.58;;;12.93;;
24739;SDS011;45234;48.148;17.128;2023-02-15T00:58:43;18.90;;;11.73;;
24739;SDS011;45234;48.148;17.128;2023-02-15T01:01:11;23.77;;;12.02;;
24739;SDS011;45234;48.148;17.128;2023-02-15T01:03:41;19.92;;;11.90;;
24739;SDS011;45234;48.148;17.128;2023-02-15T01:06:09;24.92;;;13.77;;
24739;SDS011;45234;48.148;17.128;2023-02-15T01:08:36;21.35;;;12.73;;
24739;SDS011;45234;48.148;17.128;2023-02-15T01:11:07;20.50;;;12.93;;
24739;SDS011;45234;48.148;17.128;2023-02-15T01:13:38;22.45;;;12.98;;
24739;SDS011;45234;48.148;17.128;2023-02-15T01:16:06;26.30;;;12.95;;
24739;SDS011;45234;48.148;17.128;2023-02-15T01:18:34;21.67;;;13.70;;
24739;SDS011;45234;48.148;17.128;2023-02-15T01:21:08;21.58;;;13.02;;
24739;SDS011;45234;48.148;17.128;2023-02-15T01:23:42;22.15;;;13.05;;
24739;SDS011;45234;48.148;17.128;2023-02-15T01:26:11;25.27;;;13.90;;
24739;SDS011;45234;48.148;17.128;2023-02-15T01:28:38;27.45;;;14.05;;
24739;SDS011;45234;48.148;17.128;2023-02-15T01:31:06;23.08;;;13.23;;
24739;SDS011;45234;48.148;17.128;2023-02-15T01:33:43;21.15;;;13.55;;
24739;SDS011;45234;48.148;17.128;2023-02-15T01:36:11;24.00;;;14.35;;
24739;SDS011;45234;48.148;17.128;2023-02-15T01:38:38;25.02;;;13.90;;
24739;SDS011;45234;48.148;17.128;2023-02-15T01:41:05;23.13;;;14.23;;
24739;SDS011;45234;48.148;17.128;2023-02-15T01:43:53;27.00;;;14.85;;
24739;SDS011;45234;48.148;17.128;2023-02-15T01:46:24;23.25;;;13.10;;
24739;SDS011;45234;48.148;17.128;2023-02-15T01:49:19;24.38;;;13.73;;
24739;SDS011;45234;48.148;17.128;2023-02-15T01:51:51;25.92;;;14.20;;
24739;SDS011;45234;48.148;17.128;2023-02-15T01:54:27;23.15;;;13.75;;
24739;SDS011;45234;48.148;17.128;2023-02-15T01:57:01;25.77;;;15.05;;
24739;SDS011;45234;48.148;17.128;2023-02-15T01:59:30;26.52;;;14.50;;
24739;SDS011;45234;48.148;17.128;2023-02-15T02:01:59;25.23;;;15.20;;
24739;SDS011;45234;48.148;17.128;2023-02-15T02:04:29;24.83;;;15.02;;
24739;SDS011;45234;48.148;17.128;2023-02-15T02:07:04;26.25;;;15.60;;
24739;SDS011;45234;48.148;17.128;2023-02-15T02:09:32;31.25;;;15.05;;
24739;SDS011;45234;48.148;17.128;2023-02-15T02:11:59;23.55;;;15.00;;
24739;SDS011;45234;48.148;17.128;2023-02-15T02:14:26;26.05;;;14.50;;
24739;SDS011;45234;48.148;17.128;2023-02-15T02:19:49;25.55;;;15.32;;
24739;SDS011;45234;48.148;17.128;2023-02-15T02:25:12;26.60;;;15.05;;
24739;SDS011;45234;48.148;17.128;2023-02-15T02:36:06;27.73;;;14.98;;
24739;SDS011;45234;48.148;17.128;2023-02-15T02:49:58;26.10;;;14.77;;
24739;SDS011;45234;48.148;17.128;2023-02-15T02:52:35;26.75;;;15.10;;
24739;SDS011;45234;48.148;17.128;2023-02-15T02:55:05;28.88;;;14.95;;
24739;SDS011;45234;48.148;17.128;2023-02-15T03:00:36;23.83;;;14.75;;
24739;SDS011;45234;48.148;17.128;2023-02-15T03:03:43;29.30;;;16.23;;
24739;SDS011;45234;48.148;17.128;2023-02-15T03:08:54;26.80;;;14.88;;
24739;SDS011;45234;48.148;17.128;2023-02-15T03:11:41;26.90;;;14.00;;
24739;SDS011;45234;48.148;17.128;2023-02-15T03:14:10;23.67;;;14.85;;
24739;SDS011;45234;48.148;17.128;2023-02-15T03:16:39;27.02;;;15.57;;
24739;SDS011;45234;48.148;17.128;2023-02-15T03:19:12;27.17;;;14.75;;
24739;SDS011;45234;48.148;17.128;2023-02-15T03:21:51;23.88;;;14.68;;
24739;SDS011;45234;48.148;17.128;2023-02-15T03:24:32;29.85;;;15.68;;
24739;SDS011;45234;48.148;17.128;2023-02-15T03:27:17;31.38;;;16.55;;
24739;SDS011;45234;48.148;17.128;2023-02-15T03:29:53;26.33;;;14.82;;
24739;SDS011;45234;48.148;17.128;2023-02-15T03:32:22;27.90;;;15.82;;
24739;SDS011;45234;48.148;17.128;2023-02-15T03:34:51;30.42;;;15.80;;
24739;SDS011;45234;48.148;17.128;2023-02-15T03:37:32;31.13;;;17.60;;
24739;SDS011;45234;48.148;17.128;2023-02-15T03:40:37;33.60;;;17.23;;
24739;SDS011;45234;48.148;17.128;2023-02-15T03:46:21;31.80;;;16.30;;
24739;SDS011;45234;48.148;17.128;2023-02-15T03:48:55;26.52;;;15.15;;
24739;SDS011;45234;48.148;17.128;2023-02-15T03:51:30;32.65;;;15.63;;
24739;SDS011;45234;48.148;17.128;2023-02-15T03:56:33;28.10;;;15.95;;
24739;SDS011;45234;48.148;17.128;2023-02-15T03:59:02;27.40;;;15.88;;
24739;SDS011;45234;48.148;17.128;2023-02-15T04:04:34;31.05;;;16.08;;
24739;SDS011;45234;48.148;17.128;2023-02-15T04:07:04;28.98;;;16.63;;
24739;SDS011;45234;48.148;17.128;2023-02-15T04:09:32;30.25;;;15.10;;
24739;SDS011;45234;48.148;17.128;2023-02-15T04:12:18;33.83;;;16.08;;
24739;SDS011;45234;48.148;17.128;2023-02-15T04:14:45;29.38;;;16.30;;
24739;SDS011;45234;48.148;17.128;2023-02-15T04:17:31;31.55;;;17.52;;
24739;SDS011;45234;48.148;17.128;2023-02-15T04:19:57;34.72;;;17.85;;
24739;SDS011;45234;48.148;17.128;2023-02-15T04:22:43;37.60;;;18.13;;
24739;SDS011;45234;48.148;17.128;2023-02-15T04:25:28;39.58;;;20.35;;
24739;SDS011;45234;48.148;17.128;2023-02-15T04:27:56;41.25;;;21.67;;
24739;SDS011;45234;48.148;17.128;2023-02-15T04:30:24;40.72;;;20.77;;
24739;SDS011;45234;48.148;17.128;2023-02-15T04:32:53;37.83;;;19.98;;
24739;SDS011;45234;48.148;17.128;2023-02-15T04:35:20;41.90;;;21.58;;
24739;SDS011;45234;48.148;17.128;2023-02-15T04:37:48;45.97;;;21.30;;
24739;SDS011;45234;48.148;17.128;2023-02-15T04:40:15;41.03;;;19.58;;
24739;SDS011;45234;48.148;17.128;2023-02-15T04:42:44;43.38;;;19.40;;
24739;SDS011;45234;48.148;17.128;2023-02-15T04:45:14;44.70;;;22.85;;
24739;SDS011;45234;48.148;17.128;2023-02-15T04:47:43;44.97;;;22.13;;
24739;SDS011;45234;48.148;17.128;2023-02-15T04:50:10;49.97;;;22.38;;
24739;SDS011;45234;48.148;17.128;2023-02-15T04:52:37;41.20;;;21.45;;
24739;SDS011;45234;48.148;17.128;2023-02-15T04:55:04;42.40;;;21.85;;
24739;SDS011;45234;48.148;17.128;2023-02-15T04:57:32;43.95;;;22.33;;
24739;SDS011;45234;48.148;17.128;2023-02-15T04:59:58;39.75;;;21.20;;
24739;SDS011;45234;48.148;17.128;2023-02-15T05:02:25;49.15;;;23.67;;
24739;SDS011;45234;48.148;17.128;2023-02-15T05:04:53;52.70;;;22.90;;
24739;SDS011;45234;48.148;17.128;2023-02-15T05:07:20;48.47;;;22.70;;
24739;SDS011;45234;48.148;17.128;2023-02-15T05:09:47;43.00;;;21.17;;
24739;SDS011;45234;48.148;17.128;2023-02-15T05:12:14;54.05;;;26.48;;
24739;SDS011;45234;48.148;17.128;2023-02-15T05:14:41;51.35;;;24.98;;
24739;SDS011;45234;48.148;17.128;2023-02-15T05:17:08;57.30;;;27.55;;
24739;SDS011;45234;48.148;17.128;2023-02-15T05:19:34;63.10;;;30.27;;
24739;SDS011;45234;48.148;17.128;2023-02-15T05:22:01;56.67;;;26.48;;
24739;SDS011;45234;48.148;17.128;2023-02-15T05:24:28;58.00;;;28.70;;
24739;SDS011;45234;48.148;17.128;2023-02-15T05:27:13;58.65;;;29.42;;
24739;SDS011;45234;48.148;17.128;2023-02-15T05:30:00;56.67;;;27.63;;
24739;SDS011;45234;48.148;17.128;2023-02-15T05:32:29;57.60;;;27.90;;
24739;SDS011;45234;48.148;17.128;2023-02-15T05:34:56;56.42;;;27.50;;
24739;SDS011;45234;48.148;17.128;2023-02-15T05:37:23;51.38;;;25.60;;
24739;SDS011;45234;48.148;17.128;2023-02-15T05:39:50;51.70;;;26.38;;
24739;SDS011;45234;48.148;17.128;2023-02-15T05:42:17;52.33;;;25.70;;
24739;SDS011;45234;48.148;17.128;2023-02-15T05:44:43;53.17;;;26.65;;
24739;SDS011;45234;48.148;17.128;2023-02-15T05:47:10;53.50;;;27.08;;
24739;SDS011;45234;48.148;17.128;2023-02-15T05:49:37;51.30;;;26.20;;
24739;SDS011;45234;48.148;17.128;2023-02-15T05:52:04;52.63;;;26.35;;
24739;SDS011;45234;48.148;17.128;2023-02-15T05:54:31;47.65;;;24.42;;
24739;SDS011;45234;48.148;17.128;2023-02-15T05:56:58;47.35;;;25.25;;
24739;SDS011;45234;48.148;17.128;2023-02-15T05:59:25;49.03;;;26.55;;
24739;SDS011;45234;48.148;17.128;2023-02-15T06:01:52;52.25;;;25.45;;
24739;SDS011;45234;48.148;17.128;2023-02-15T06:04:19;51.25;;;26.63;;
24739;SDS011;45234;48.148;17.128;2023-02-15T06:06:46;54.78;;;26.58;;
24739;SDS011;45234;48.148;17.128;2023-02-15T06:09:13;49.80;;;24.92;;
24739;SDS011;45234;48.148;17.128;2023-02-15T06:11:40;50.40;;;26.65;;
24739;SDS011;45234;48.148;17.128;2023-02-15T06:14:08;50.10;;;25.15;;
24739;SDS011;45234;48.148;17.128;2023-02-15T06:16:38;47.33;;;23.48;;
24739;SDS011;45234;48.148;17.128;2023-02-15T06:19:05;48.22;;;24.10;;
24739;SDS011;45234;48.148;17.128;2023-02-15T06:21:32;48.03;;;24.77;;
24739;SDS011;45234;48.148;17.128;2023-02-15T06:23:59;44.38;;;23.80;;
24739;SDS011;45234;48.148;17.128;2023-02-15T06:26:26;49.28;;;24.77;;
24739;SDS011;45234;48.148;17.128;2023-02-15T06:28:53;48.30;;;25.73;;
24739;SDS011;45234;48.148;17.128;2023-02-15T06:31:20;44.80;;;23.98;;
24739;SDS011;45234;48.148;17.128;2023-02-15T06:33:47;45.67;;;25.48;;
24739;SDS011;45234;48.148;17.128;2023-02-15T06:36:13;45.95;;;24.77;;
24739;SDS011;45234;48.148;17.128;2023-02-15T06:38:40;45.05;;;24.95;;
24739;SDS011;45234;48.148;17.128;2023-02-15T06:41:07;47.90;;;26.05;;
24739;SDS011;45234;48.148;17.128;2023-02-15T06:43:34;43.60;;;24.88;;
24739;SDS011;45234;48.148;17.128;2023-02-15T06:46:01;43.75;;;24.90;;
24739;SDS011;45234;48.148;17.128;2023-02-15T06:48:28;44.80;;;23.63;;
24739;SDS011;45234;48.148;17.128;2023-02-15T06:50:55;41.95;;;24.42;;
24739;SDS011;45234;48.148;17.128;2023-02-15T06:53:22;43.63;;;23.83;;
24739;SDS011;45234;48.148;17.128;2023-02-15T06:55:49;41.45;;;24.70;;
24739;SDS011;45234;48.148;17.128;2023-02-15T06:58:15;45.42;;;24.25;;
24739;SDS011;45234;48.148;17.128;2023-02-15T07:00:42;42.83;;;25.60;;
24739;SDS011;45234;48.148;17.128;2023-02-15T07:03:09;48.67;;;26.20;;
24739;SDS011;45234;48.148;17.128;2023-02-15T07:05:38;44.50;;;25.77;;
24739;SDS011;45234;48.148;17.128;2023-02-15T07:08:06;48.58;;;28.23;;
24739;SDS011;45234;48.148;17.128;2023-02-15T07:10:32;51.53;;;28.90;;
24739;SDS011;45234;48.148;17.128;2023-02-15T07:13:00;54.83;;;30.33;;
24739;SDS011;45234;48.148;17.128;2023-02-15T07:15:27;57.13;;;29.45;;
24739;SDS011;45234;48.148;17.128;2023-02-15T07:17:54;56.88;;;31.23;;
24739;SDS011;45234;48.148;17.128;2023-02-15T07:20:22;54.13;;;30.67;;
24739;SDS011;45234;48.148;17.128;2023-02-15T07:22:50;63.10;;;31.58;;
24739;SDS011;45234;48.148;17.128;2023-02-15T07:25:17;57.15;;;30.98;;
24739;SDS011;45234;48.148;17.128;2023-02-15T07:27:44;52.65;;;29.80;;
24739;SDS011;45234;48.148;17.128;2023-02-15T07:30:13;54.03;;;29.90;;
24739;SDS011;45234;48.148;17.128;2023-02-15T07:32:42;51.45;;;30.17;;
24739;SDS011;45234;48.148;17.128;2023-02-15T07:35:30;47.35;;;27.08;;
24739;SDS011;45234;48.148;17.128;2023-02-15T07:37:57;48.67;;;27.27;;
24739;SDS011;45234;48.148;17.128;2023-02-15T07:40:24;45.55;;;27.33;;
24739;SDS011;45234;48.148;17.128;2023-02-15T07:42:52;45.70;;;27.35;;
24739;SDS011;45234;48.148;17.128;2023-02-15T07:45:20;48.65;;;27.85;;
24739;SDS011;45234;48.148;17.128;2023-02-15T07:47:47;52.13;;;29.05;;
24739;SDS011;45234;48.148;17.128;2023-02-15T07:50:14;42.63;;;24.58;;
24739;SDS011;45234;48.148;17.128;2023-02-15T07:52:41;41.90;;;24.60;;
24739;SDS011;45234;48.148;17.128;2023-02-15T07:55:08;36.70;;;22.73;;
24739;SDS011;45234;48.148;17.128;2023-02-15T07:57:43;42.08;;;23.33;;
24739;SDS011;45234;48.148;17.128;2023-02-15T08:00:14;39.65;;;22.90;;
24739;SDS011;45234;48.148;17.128;2023-02-15T08:02:47;36.83;;;23.52;;
24739;SDS011;45234;48.148;17.128;2023-02-15T08:05:34;34.67;;;22.15;;
24739;SDS011;45234;48.148;17.128;2023-02-15T08:08:01;34.83;;;20.88;;
24739;SDS011;45234;48.148;17.128;2023-02-15T08:10:28;34.45;;;20.70;;
24739;SDS011;45234;48.148;17.128;2023-02-15T08:13:14;37.25;;;21.08;;
24739;SDS011;45234;48.148;17.128;2023-02-15T08:15:47;37.00;;;21.73;;
24739;SDS011;45234;48.148;17.128;2023-02-15T08:18:15;35.70;;;20.55;;
24739;SDS011;45234;48.148;17.128;2023-02-15T08:20:42;39.47;;;23.83;;
24739;SDS011;45234;48.148;17.128;2023-02-15T08:23:14;38.67;;;23.13;;
24739;SDS011;45234;48.148;17.128;2023-02-15T08:25:41;41.50;;;23.38;;
24739;SDS011;45234;48.148;17.128;2023-02-15T08:28:08;39.10;;;24.42;;
24739;SDS011;45234;48.148;17.128;2023-02-15T08:30:35;39.97;;;23.73;;
24739;SDS011;45234;48.148;17.128;2023-02-15T08:33:02;44.28;;;25.70;;
24739;SDS011;45234;48.148;17.128;2023-02-15T08:35:29;39.08;;;23.98;;
24739;SDS011;45234;48.148;17.128;2023-02-15T08:37:56;37.97;;;24.42;;
24739;SDS011;45234;48.148;17.128;2023-02-15T08:40:23;39.63;;;24.85;;
24739;SDS011;45234;48.148;17.128;2023-02-15T08:42:50;46.67;;;26.48;;
24739;SDS011;45234;48.148;17.128;2023-02-15T08:45:17;40.47;;;25.88;;
24739;SDS011;45234;48.148;17.128;2023-02-15T08:47:44;42.45;;;25.02;;
24739;SDS011;45234;48.148;17.128;2023-02-15T08:50:11;42.92;;;26.20;;
24739;SDS011;45234;48.148;17.128;2023-02-15T08:52:38;44.65;;;26.48;;
24739;SDS011;45234;48.148;17.128;2023-02-15T08:55:05;41.00;;;24.77;;
24739;SDS011;45234;48.148;17.128;2023-02-15T08:57:32;42.75;;;26.35;;
24739;SDS011;45234;48.148;17.128;2023-02-15T08:59:59;40.78;;;26.25;;
24739;SDS011;45234;48.148;17.128;2023-02-15T09:02:29;41.30;;;24.85;;
24739;SDS011;45234;48.148;17.128;2023-02-15T09:04:55;41.38;;;24.58;;
24739;SDS011;45234;48.148;17.128;2023-02-15T09:07:22;44.78;;;25.50;;
24739;SDS011;45234;48.148;17.128;2023-02-15T09:09:49;43.83;;;25.77;;
24739;SDS011;45234;48.148;17.128;2023-02-15T09:12:16;43.50;;;27.65;;
24739;SDS011;45234;48.148;17.128;2023-02-15T09:14:43;46.33;;;27.05;;
24739;SDS011;45234;48.148;17.128;2023-02-15T09:17:10;46.25;;;28.15;;
24739;SDS011;45234;48.148;17.128;2023-02-15T09:19:40;45.35;;;26.45;;
24739;SDS011;45234;48.148;17.128;2023-02-15T09:22:07;45.03;;;28.13;;
24739;SDS011;45234;48.148;17.128;2023-02-15T09:24:34;53.13;;;27.67;;
24739;SDS011;45234;48.148;17.128;2023-02-15T09:27:01;47.13;;;26.98;;
24739;SDS011;45234;48.148;17.128;2023-02-15T09:29:28;43.53;;;27.08;;
24739;SDS011;45234;48.148;17.128;2023-02-15T09:31:55;47.58;;;26.92;;
24739;SDS011;45234;48.148;17.128;2023-02-15T09:34:22;41.25;;;27.25;;
24739;SDS011;45234;48.148;17.128;2023-02-15T09:36:49;46.47;;;28.85;;
24739;SDS011;45234;48.148;17.128;2023-02-15T09:39:18;48.72;;;28.33;;
24739;SDS011;45234;48.148;17.128;2023-02-15T09:44:29;51.90;;;29.35;;
24739;SDS011;45234;48.148;17.128;2023-02-15T10:12:54;48.25;;;28.63;;
24739;SDS011;45234;48.148;17.128;2023-02-15T10:18:48;60.40;;;35.33;;
24739;SDS011;45234;48.148;17.128;2023-02-15T10:26:50;68.82;;;38.20;;
24739;SDS011;45234;48.148;17.128;2023-02-15T10:32:14;71.75;;;38.90;;
24739;SDS011;45234;48.148;17.128;2023-02-15T10:35:01;58.80;;;35.80;;
24739;SDS011;45234;48.148;17.128;2023-02-15T10:50:49;64.80;;;38.00;;
24739;SDS011;45234;48.148;17.128;2023-02-15T11:01:34;48.60;;;30.58;;
24739;SDS011;45234;48.148;17.128;2023-02-15T11:06:49;47.85;;;29.23;;
24739;SDS011;45234;48.148;17.128;2023-02-15T11:09:20;46.75;;;27.38;;
24739;SDS011;45234;48.148;17.128;2023-02-15T11:11:51;49.35;;;29.67;;
24739;SDS011;45234;48.148;17.128;2023-02-15T11:16:59;51.33;;;31.45;;
24739;SDS011;45234;48.148;17.128;2023-02-15T11:19:32;48.75;;;30.00;;
24739;SDS011;45234;48.148;17.128;2023-02-15T11:22:04;48.35;;;30.02;;
24739;SDS011;45234;48.148;17.128;2023-02-15T11:24:34;50.08;;;31.45;;
24739;SDS011;45234;48.148;17.128;2023-02-15T11:32:31;52.08;;;30.65;;
24739;SDS011;45234;48.148;17.128;2023-02-15T11:35:04;46.83;;;30.63;;
24739;SDS011;45234;48.148;17.128;2023-02-15T11:37:40;45.47;;;29.45;;
24739;SDS011;45234;48.148;17.128;2023-02-15T11:43:11;48.72;;;30.23;;
24739;SDS011;45234;48.148;17.128;2023-02-15T11:45:46;48.88;;;30.08;;
24739;SDS011;45234;48.148;17.128;2023-02-15T11:48:13;49.38;;;30.00;;
24739;SDS011;45234;48.148;17.128;2023-02-15T11:50:41;51.13;;;31.95;;
24739;SDS011;45234;48.148;17.128;2023-02-15T11:55:43;56.17;;;33.42;;
24739;SDS011;45234;48.148;17.128;2023-02-15T12:00:45;52.72;;;32.92;;
24739;SDS011;45234;48.148;17.128;2023-02-15T12:03:22;54.30;;;32.10;;
24739;SDS011;45234;48.148;17.128;2023-02-15T12:06:13;53.70;;;32.10;;
24739;SDS011;45234;48.148;17.128;2023-02-15T12:08:48;48.80;;;30.90;;
24739;SDS011;45234;48.148;17.128;2023-02-15T12:11:29;51.90;;;31.02;;
24739;SDS011;45234;48.148;17.128;2023-02-15T12:14:08;53.30;;;31.77;;
24739;SDS011;45234;48.148;17.128;2023-02-15T12:16:47;52.15;;;32.00;;
24739;SDS011;45234;48.148;17.128;2023-02-15T12:22:06;50.83;;;30.10;;
24739;SDS011;45234;48.148;17.128;2023-02-15T12:24:46;51.88;;;30.88;;
24739;SDS011;45234;48.148;17.128;2023-02-15T12:27:15;53.35;;;31.67;;
24739;SDS011;45234;48.148;17.128;2023-02-15T12:29:45;54.05;;;34.10;;
24739;SDS011;45234;48.148;17.128;2023-02-15T12:32:18;49.55;;;29.88;;
24739;SDS011;45234;48.148;17.128;2023-02-15T12:38:43;54.10;;;30.95;;
24739;SDS011;45234;48.148;17.128;2023-02-15T12:40:57;50.70;;;30.75;;
24739;SDS011;45234;48.148;17.128;2023-02-15T12:43:27;56.20;;;32.70;;
24739;SDS011;45234;48.148;17.128;2023-02-15T12:46:13;59.60;;;33.80;;
24739;SDS011;45234;48.148;17.128;2023-02-15T12:51:50;55.22;;;34.05;;
24739;SDS011;45234;48.148;17.128;2023-02-15T12:54:31;55.42;;;33.75;;
24739;SDS011;45234;48.148;17.128;2023-02-15T13:00:02;58.50;;;32.80;;
24739;SDS011;45234;48.148;17.128;2023-02-15T13:08:00;58.33;;;34.78;;
24739;SDS011;45234;48.148;17.128;2023-02-15T13:10:51;57.42;;;33.55;;
24739;SDS011;45234;48.148;17.128;2023-02-15T13:13:22;55.63;;;34.03;;
24739;SDS011;45234;48.148;17.128;2023-02-15T13:15:57;60.60;;;35.60;;
24739;SDS011;45234;48.148;17.128;2023-02-15T13:21:04;56.53;;;34.22;;
24739;SDS011;45234;48.148;17.128;2023-02-15T13:23:45;55.08;;;34.20;;
24739;SDS011;45234;48.148;17.128;2023-02-15T13:26:20;57.58;;;35.78;;
24739;SDS011;45234;48.148;17.128;2023-02-15T13:28:53;61.00;;;34.45;;
24739;SDS011;45234;48.148;17.128;2023-02-15T13:31:25;57.97;;;35.55;;
24739;SDS011;45234;48.148;17.128;2023-02-15T13:34:11;57.75;;;34.70;;
24739;SDS011;45234;48.148;17.128;2023-02-15T13:40:01;56.33;;;32.90;;
24739;SDS011;45234;48.148;17.128;2023-02-15T14:11:15;57.05;;;34.63;;
24739;SDS011;45234;48.148;17.128;2023-02-15T14:17:27;57.15;;;34.63;;
24739;SDS011;45234;48.148;17.128;2023-02-15T14:26:03;59.08;;;35.72;;
24739;SDS011;45234;48.148;17.128;2023-02-15T14:31:14;63.20;;;36.10;;
24739;SDS011;45234;48.148;17.128;2023-02-15T14:33:53;58.08;;;35.00;;
24739;SDS011;45234;48.148;17.128;2023-02-15T14:36:22;57.88;;;34.33;;
24739;SDS011;45234;48.148;17.128;2023-02-15T14:46:50;59.30;;;34.80;;
24739;SDS011;45234;48.148;17.128;2023-02-15T14:49:46;61.05;;;35.03;;
24739;SDS011;45234;48.148;17.128;2023-02-15T14:52:12;61.17;;;35.35;;
24739;SDS011;45234;48.148;17.128;2023-02-15T15:02:12;60.67;;;35.47;;
24739;SDS011;45234;48.148;17.128;2023-02-15T15:07:37;53.03;;;32.58;;
24739;SDS011;45234;48.148;17.128;2023-02-15T15:15:15;51.28;;;31.42;;
24739;SDS011;45234;48.148;17.128;2023-02-15T15:21:09;57.40;;;33.28;;
24739;SDS011;45234;48.148;17.128;2023-02-15T15:26:23;55.38;;;32.30;;
24739;SDS011;45234;48.148;17.128;2023-02-15T15:29:03;60.15;;;33.17;;
24739;SDS011;45234;48.148;17.128;2023-02-15T15:34:21;55.15;;;30.05;;
24739;SDS011;45234;48.148;17.128;2023-02-15T15:45:57;65.18;;;31.10;;
24739;SDS011;45234;48.148;17.128;2023-02-15T15:48:46;51.90;;;30.50;;
24739;SDS011;45234;48.148;17.128;2023-02-15T15:51:15;63.65;;;39.05;;
24739;SDS011;45234;48.148;17.128;2023-02-15T15:53:47;55.28;;;32.63;;
24739;SDS011;45234;48.148;17.128;2023-02-15T15:56:20;58.75;;;32.13;;
24739;SDS011;45234;48.148;17.128;2023-02-15T15:58:54;61.40;;;31.40;;
24739;SDS011;45234;48.148;17.128;2023-02-15T16:01:37;52.83;;;30.77;;
24739;SDS011;45234;48.148;17.128;2023-02-15T16:04:28;55.90;;;30.23;;
24739;SDS011;45234;48.148;17.128;2023-02-15T16:06:57;52.30;;;29.70;;
24739;SDS011;45234;48.148;17.128;2023-02-15T16:09:58;56.03;;;29.83;;
24739;SDS011;45234;48.148;17.128;2023-02-15T16:12:33;55.42;;;30.25;;
24739;SDS011;45234;48.148;17.128;2023-02-15T16:15:02;53.30;;;30.40;;
24739;SDS011;45234;48.148;17.128;2023-02-15T16:17:46;58.15;;;29.85;;
24739;SDS011;45234;48.148;17.128;2023-02-15T16:22:45;55.90;;;30.95;;
24739;SDS011;45234;48.148;17.128;2023-02-15T16:28:08;58.28;;;31.48;;
24739;SDS011;45234;48.148;17.128;2023-02-15T16:30:38;62.13;;;34.17;;
24739;SDS011;45234;48.148;17.128;2023-02-15T16:33:07;62.28;;;33.42;;
24739;SDS011;45234;48.148;17.128;2023-02-15T16:35:36;62.03;;;33.63;;
24739;SDS011;45234;48.148;17.128;2023-02-15T16:41:21;66.82;;;34.28;;
24739;SDS011;45234;48.148;17.128;2023-02-15T16:43:58;63.83;;;32.20;;
24739;SDS011;45234;48.148;17.128;2023-02-15T16:46:31;67.15;;;33.47;;
24739;SDS011;45234;48.148;17.128;2023-02-15T16:49:03;66.05;;;34.45;;
24739;SDS011;45234;48.148;17.128;2023-02-15T16:51:37;67.05;;;35.30;;
24739;SDS011;45234;48.148;17.128;2023-02-15T16:54:15;68.95;;;35.65;;
24739;SDS011;45234;48.148;17.128;2023-02-15T16:56:46;74.30;;;37.83;;
24739;SDS011;45234;48.148;17.128;2023-02-15T17:02:03;74.03;;;37.05;;
24739;SDS011;45234;48.148;17.128;2023-02-15T17:07:39;75.75;;;37.70;;
24739;SDS011;45234;48.148;17.128;2023-02-15T17:10:25;73.45;;;38.65;;
24739;SDS011;45234;48.148;17.128;2023-02-15T17:12:52;76.38;;;39.30;;
24739;SDS011;45234;48.148;17.128;2023-02-15T17:15:33;71.75;;;39.38;;
24739;SDS011;45234;48.148;17.128;2023-02-15T17:20:42;75.05;;;38.42;;
24739;SDS011;45234;48.148;17.128;2023-02-15T17:23:22;83.63;;;39.88;;
24739;SDS011;45234;48.148;17.128;2023-02-15T17:25:58;80.28;;;41.60;;
24739;SDS011;45234;48.148;17.128;2023-02-15T17:28:36;79.10;;;42.85;;
24739;SDS011;45234;48.148;17.128;2023-02-15T17:33:39;77.75;;;39.83;;
24739;SDS011;45234;48.148;17.128;2023-02-15T17:41:24;87.45;;;44.00;;
24739;SDS011;45234;48.148;17.128;2023-02-15T17:43:55;92.72;;;46.50;;
24739;SDS011;45234;48.148;17.128;2023-02-15T17:46:23;81.45;;;42.08;;
24739;SDS011;45234;48.148;17.128;2023-02-15T17:48:53;95.35;;;48.20;;
24739;SDS011;45234;48.148;17.128;2023-02-15T17:51:22;93.88;;;48.30;;
24739;SDS011;45234;48.148;17.128;2023-02-15T17:53:49;97.07;;;50.47;;
24739;SDS011;45234;48.148;17.128;2023-02-15T17:56:35;89.47;;;48.85;;
24739;SDS011;45234;48.148;17.128;2023-02-15T17:59:04;106.70;;;54.22;;
24739;SDS011;45234;48.148;17.128;2023-02-15T18:01:33;95.90;;;51.10;;
24739;SDS011;45234;48.148;17.128;2023-02-15T18:04:20;108.55;;;53.60;;
24739;SDS011;45234;48.148;17.128;2023-02-15T18:07:07;101.95;;;51.83;;
24739;SDS011;45234;48.148;17.128;2023-02-15T18:10:02;111.40;;;54.33;;
24739;SDS011;45234;48.148;17.128;2023-02-15T18:13:01;110.90;;;56.75;;
24739;SDS011;45234;48.148;17.128;2023-02-15T18:15:28;108.07;;;55.55;;
24739;SDS011;45234;48.148;17.128;2023-02-15T18:17:56;105.15;;;52.92;;
24739;SDS011;45234;48.148;17.128;2023-02-15T18:20:24;100.57;;;51.65;;
24739;SDS011;45234;48.148;17.128;2023-02-15T18:22:59;102.22;;;51.97;;
24739;SDS011;45234;48.148;17.128;2023-02-15T18:25:26;102.22;;;51.38;;
24739;SDS011;45234;48.148;17.128;2023-02-15T18:27:55;109.72;;;54.97;;
24739;SDS011;45234;48.148;17.128;2023-02-15T18:30:22;107.30;;;55.63;;
24739;SDS011;45234;48.148;17.128;2023-02-15T18:32:53;103.85;;;53.33;;
24739;SDS011;45234;48.148;17.128;2023-02-15T18:35:23;96.47;;;49.55;;
24739;SDS011;45234;48.148;17.128;2023-02-15T18:37:54;92.65;;;49.67;;
24739;SDS011;45234;48.148;17.128;2023-02-15T18:40:24;89.18;;;48.47;;
24739;SDS011;45234;48.148;17.128;2023-02-15T18:42:52;105.22;;;51.80;;
24739;SDS011;45234;48.148;17.128;2023-02-15T18:45:22;97.82;;;50.70;;
24739;SDS011;45234;48.148;17.128;2023-02-15T18:47:53;91.72;;;49.40;;